createdAt,value
2022-09-12T00:01:31.351Z,80.12
2022-09-12T00:04:00.309Z,80.01
2022-09-12T00:06:29.814Z,79.86
2022-09-12T00:08:59.173Z,80.05
2022-09-12T00:11:26.423Z,80.38
2022-09-12T00:13:59.427Z,79.95
2022-09-12T00:16:27.722Z,80.05
2022-09-12T00:18:54.495Z,80.47
2022-09-12T00:21:22.557Z,80.20
2022-09-12T00:23:49.914Z,80.58
2022-09-12T00:26:17.663Z,80.75
2022-09-12T00:28:44.700Z,80.84
2022-09-12T00:31:15.134Z,80.75
2022-09-12T00:33:42.259Z,80.91
2022-09-12T00:36:15.467Z,80.91
2022-09-12T00:38:42.953Z,80.80
2022-09-12T00:41:22.430Z,80.30
2022-09-12T00:43:52.183Z,80.47
2022-09-12T00:46:43.514Z,80.70
2022-09-12T00:49:55.737Z,80.53
2022-09-12T00:52:35.437Z,80.43
2022-09-12T00:55:08.158Z,80.26
2022-09-12T00:57:41.662Z,80.87
2022-09-12T01:00:15.714Z,80.43
2022-09-12T01:02:45.670Z,80.63
2022-09-12T01:05:13.743Z,80.79
2022-09-12T01:07:41.624Z,80.56
2022-09-12T01:10:09.761Z,80.42
2022-09-12T01:12:39.506Z,80.51
2022-09-12T01:15:06.599Z,80.54
2022-09-12T01:18:25.839Z,80.86
2022-09-12T01:21:11.217Z,80.67
2022-09-12T01:23:49.891Z,80.96
2022-09-12T01:26:54.070Z,80.45
2022-09-12T01:29:26.603Z,80.82
2022-09-12T01:32:30.271Z,80.88
2022-09-12T01:35:29.778Z,81.11
2022-09-12T01:38:07.462Z,81.04
2022-09-12T01:40:45.179Z,81.11
2022-09-12T01:43:21.423Z,81.77
2022-09-12T01:45:58.315Z,81.63
2022-09-12T01:48:47.314Z,81.28
2022-09-12T01:51:26.308Z,81.21
2022-09-12T01:54:08.691Z,81.46
2022-09-12T01:56:39.667Z,81.98
2022-09-12T01:59:17.162Z,81.80
2022-09-12T02:01:55.107Z,81.13
2022-09-12T02:04:43.247Z,81.67
2022-09-12T02:07:20.178Z,81.95
2022-09-12T02:09:57.010Z,82.12
2022-09-12T02:12:29.598Z,81.77
2022-09-12T02:15:02.516Z,82.09
2022-09-12T02:17:32.170Z,82.62
2022-09-12T02:20:04.805Z,83.75
2022-09-12T02:22:32.069Z,82.91
2022-09-12T02:25:01.115Z,83.27
2022-09-12T02:27:30.330Z,83.02
2022-09-12T02:29:57.007Z,82.11
2022-09-12T02:32:36.494Z,82.17
2022-09-12T02:35:24.539Z,82.06
2022-09-12T02:37:53.967Z,82.25
2022-09-12T02:40:21.061Z,81.97
2022-09-12T02:42:47.749Z,81.99
2022-09-12T02:45:14.461Z,82.26
2022-09-12T02:48:14.905Z,82.07
2022-09-12T02:50:42.085Z,81.87
2022-09-12T02:53:10.652Z,81.35
2022-09-12T02:55:39.412Z,81.80
2022-09-12T02:58:13.240Z,81.27
2022-09-12T03:01:05.183Z,81.55
2022-09-12T03:04:09.852Z,81.19
2022-09-12T03:06:47.118Z,80.81
2022-09-12T03:09:22.538Z,81.01
2022-09-12T03:11:59.050Z,81.01
2022-09-12T03:15:01.570Z,81.20
2022-09-12T03:17:38.164Z,81.52
2022-09-12T03:20:24.916Z,81.17
2022-09-12T03:22:58.713Z,81.49
2022-09-12T03:25:51.628Z,81.15
2022-09-12T03:28:20.108Z,81.42
2022-09-12T03:30:48.705Z,81.60
2022-09-12T03:33:17.984Z,81.92
2022-09-12T03:35:45.859Z,81.94
2022-09-12T03:38:12.895Z,81.97
2022-09-12T03:40:40.121Z,82.28
2022-09-12T03:43:08.220Z,81.66
2022-09-12T03:45:36.307Z,82.18
2022-09-12T03:48:04.250Z,82.08
2022-09-12T03:50:30.846Z,82.13
2022-09-12T03:52:59.677Z,82.20
2022-09-12T03:55:26.748Z,81.91
2022-09-12T03:57:54.185Z,82.00
2022-09-12T04:00:20.918Z,82.38
2022-09-12T04:02:47.482Z,81.85
2022-09-12T04:05:14.080Z,82.63
2022-09-12T04:07:40.756Z,82.33
2022-09-12T04:10:09.494Z,82.55
2022-09-12T04:12:36.680Z,81.80
2022-09-12T04:15:03.642Z,81.75
2022-09-12T04:17:30.137Z,82.51
2022-09-12T04:19:56.644Z,81.68
2022-09-12T04:22:23.296Z,82.09
2022-09-12T04:24:49.813Z,82.03
2022-09-12T04:27:16.517Z,81.95
2022-09-12T04:29:43.118Z,82.20
2022-09-12T04:32:09.665Z,82.29
2022-09-12T04:34:36.200Z,81.67
2022-09-12T04:37:02.749Z,82.58
2022-09-12T04:39:29.300Z,82.26
2022-09-12T04:41:55.922Z,83.39
2022-09-12T04:44:22.463Z,82.61
2022-09-12T04:46:49.419Z,83.00
2022-09-12T04:49:16.664Z,83.85
2022-09-12T04:51:43.617Z,84.35
2022-09-12T04:54:16.525Z,83.57
2022-09-12T04:56:45.646Z,84.35
2022-09-12T04:59:14.225Z,84.86
2022-09-12T05:01:41.454Z,86.89
2022-09-12T05:04:10.439Z,87.15
2022-09-12T05:06:38.309Z,85.00
2022-09-12T05:09:06.591Z,83.09
2022-09-12T05:12:02.670Z,80.38
2022-09-12T05:14:23.101Z,77.91
2022-09-12T05:16:49.925Z,75.47
2022-09-12T05:19:17.207Z,73.40
2022-09-12T05:21:43.750Z,72.78
2022-09-12T05:24:11.431Z,70.79
2022-09-12T05:26:38.119Z,69.80
2022-09-12T05:29:07.286Z,69.21
2022-09-12T05:31:34.839Z,68.91
2022-09-12T05:34:01.589Z,68.19
2022-09-12T05:36:29.654Z,67.27
2022-09-12T05:38:56.857Z,66.76
2022-09-12T05:41:25.781Z,67.05
2022-09-12T05:43:54.967Z,67.53
2022-09-12T05:46:23.321Z,66.91
2022-09-12T05:48:55.172Z,67.51
2022-09-12T05:51:28.386Z,66.78
2022-09-12T05:54:00.489Z,65.64
2022-09-12T05:56:28.044Z,65.85
2022-09-12T05:58:57.599Z,66.18
2022-09-12T06:01:25.013Z,65.34
2022-09-12T06:03:54.411Z,65.47
2022-09-12T06:06:23.403Z,65.59
2022-09-12T06:08:52.523Z,65.39
2022-09-12T06:11:22.990Z,64.47
2022-09-12T06:13:51.219Z,65.11
2022-09-12T06:16:28.995Z,64.97
2022-09-12T06:18:58.080Z,64.33
2022-09-12T06:21:26.643Z,64.89
2022-09-12T06:23:56.584Z,64.77
2022-09-12T06:26:26.156Z,64.71
2022-09-12T06:28:54.418Z,65.08
2022-09-12T06:31:25.199Z,64.57
2022-09-12T06:33:53.541Z,64.36
2022-09-12T06:36:28.758Z,64.45
2022-09-12T06:38:57.178Z,64.07
2022-09-12T06:41:25.471Z,63.96
2022-09-12T06:43:52.459Z,63.81
2022-09-12T06:46:19.205Z,63.71
2022-09-12T06:48:45.886Z,63.97
2022-09-12T06:51:15.719Z,63.54
2022-09-12T06:53:44.329Z,63.89
2022-09-12T06:56:21.785Z,63.75
2022-09-12T06:58:50.133Z,63.51
2022-09-12T07:01:19.051Z,63.79
2022-09-12T07:03:57.422Z,63.74
2022-09-12T07:06:29.851Z,63.68
2022-09-12T07:08:58.552Z,63.89
2022-09-12T07:11:27.470Z,63.41
2022-09-12T07:13:56.750Z,63.34
2022-09-12T07:16:23.734Z,63.69
2022-09-12T07:18:52.431Z,63.12
2022-09-12T07:21:19.393Z,63.05
2022-09-12T07:23:46.944Z,63.21
2022-09-12T07:26:15.506Z,63.44
2022-09-12T07:28:42.731Z,63.14
2022-09-12T07:31:15.359Z,63.08
2022-09-12T07:33:43.050Z,63.25
2022-09-12T07:36:15.015Z,62.59
2022-09-12T07:38:42.703Z,63.40
2022-09-12T07:41:19.696Z,63.03
2022-09-12T07:43:46.817Z,62.67
2022-09-12T07:46:14.470Z,63.02
2022-09-12T07:48:41.160Z,62.64
2022-09-12T07:51:10.778Z,63.29
2022-09-12T07:53:41.847Z,62.71
2022-09-12T07:56:10.405Z,62.90
2022-09-12T07:58:38.345Z,63.23
2022-09-12T08:01:13.771Z,61.77
2022-09-12T08:03:42.685Z,62.58
2022-09-12T08:06:20.275Z,64.27
2022-09-12T08:08:48.249Z,65.77
2022-09-12T08:11:17.025Z,65.80
2022-09-12T08:13:44.224Z,65.43
2022-09-12T08:16:17.952Z,65.81
2022-09-12T08:18:45.143Z,65.56
2022-09-12T08:21:20.931Z,64.91
2022-09-12T08:23:48.546Z,65.44
2022-09-12T08:26:15.071Z,64.88
2022-09-12T08:28:45.598Z,64.36
2022-09-12T08:31:15.731Z,64.27
2022-09-12T08:33:42.433Z,63.91
2022-09-12T08:36:21.489Z,63.41
2022-09-12T08:38:50.237Z,63.87
2022-09-12T08:41:35.149Z,63.98
2022-09-12T08:44:04.612Z,64.23
2022-09-12T08:46:56.786Z,63.43
2022-09-12T08:49:39.926Z,63.55
2022-09-12T08:52:19.488Z,63.58
2022-09-12T08:54:46.540Z,63.83
2022-09-12T08:57:15.087Z,63.20
2022-09-12T08:59:46.626Z,62.87
2022-09-12T09:02:19.174Z,62.65
2022-09-12T09:04:52.909Z,62.65
2022-09-12T09:07:25.983Z,60.89
2022-09-12T09:10:16.939Z,61.44
2022-09-12T09:13:45.357Z,61.67
2022-09-12T09:16:53.993Z,61.05
2022-09-12T09:19:27.710Z,60.95
2022-09-12T09:22:18.917Z,59.42
2022-09-12T09:25:01.406Z,59.44
2022-09-12T09:27:42.043Z,59.53
2022-09-12T09:30:18.119Z,59.29
2022-09-12T09:32:50.502Z,59.63
2022-09-12T09:35:18.891Z,59.87
2022-09-12T09:38:00.393Z,59.78
2022-09-12T09:40:36.432Z,60.02
2022-09-12T09:43:22.703Z,60.00
2022-09-12T09:45:51.847Z,59.37
2022-09-12T09:48:24.593Z,59.53
2022-09-12T09:50:51.871Z,58.63
2022-09-12T09:53:32.375Z,57.61
2022-09-12T09:56:01.719Z,57.24
2022-09-12T09:58:35.858Z,57.90
2022-09-12T10:01:12.179Z,57.48
2022-09-12T10:03:40.199Z,56.44
2022-09-12T10:06:23.473Z,55.67
2022-09-12T10:08:50.519Z,56.17
2022-09-12T10:11:22.941Z,55.60
2022-09-12T10:13:56.884Z,55.28
2022-09-12T10:16:32.719Z,54.94
2022-09-12T10:19:03.985Z,54.98
2022-09-12T10:21:35.820Z,55.09
2022-09-12T10:24:14.741Z,54.81
2022-09-12T10:26:43.333Z,54.33
2022-09-12T10:29:21.779Z,54.50
2022-09-12T10:31:54.894Z,53.66
2022-09-12T10:34:25.259Z,53.37
2022-09-12T10:36:55.792Z,52.85
2022-09-12T10:39:22.526Z,53.10
2022-09-12T10:41:49.039Z,52.90
2022-09-12T10:44:18.766Z,52.63
2022-09-12T10:46:45.642Z,52.30
2022-09-12T10:49:26.695Z,52.19
2022-09-12T10:51:54.760Z,51.42
2022-09-12T10:54:26.969Z,51.69
2022-09-12T10:57:06.637Z,51.62
2022-09-12T10:59:58.709Z,50.87
2022-09-12T11:02:40.403Z,50.83
2022-09-12T11:05:22.421Z,48.72
2022-09-12T11:07:57.026Z,47.87
2022-09-12T11:11:08.734Z,47.10
2022-09-12T11:13:56.985Z,47.17
2022-09-12T11:16:48.007Z,45.86
2022-09-12T11:19:39.415Z,45.56
2022-09-12T11:22:20.859Z,44.82
2022-09-12T11:25:13.823Z,44.74
2022-09-12T11:27:59.329Z,44.42
2022-09-12T11:30:29.010Z,41.52
2022-09-12T11:33:30.023Z,41.73
2022-09-12T11:35:57.845Z,42.16
2022-09-12T11:38:43.258Z,42.24
2022-09-12T11:41:15.422Z,42.20
2022-09-12T11:44:18.213Z,42.44
2022-09-12T11:46:48.758Z,41.62
2022-09-12T11:49:29.719Z,41.92
2022-09-12T11:52:15.875Z,40.39
2022-09-12T11:55:00.541Z,38.96
2022-09-12T11:57:51.039Z,38.28
2022-09-12T12:00:20.711Z,37.41
2022-09-12T12:03:14.395Z,38.48
2022-09-12T12:06:07.051Z,37.53
2022-09-12T12:08:40.440Z,37.59
2022-09-12T12:11:10.872Z,37.71
2022-09-12T12:13:55.675Z,37.56
2022-09-12T12:16:29.305Z,37.41
2022-09-12T12:18:59.643Z,37.16
2022-09-12T12:21:29.489Z,37.33
2022-09-12T12:24:09.536Z,36.50
2022-09-12T12:26:39.022Z,36.76
2022-09-12T12:29:11.208Z,36.27
2022-09-12T12:31:59.470Z,36.33
2022-09-12T12:34:31.046Z,35.97
2022-09-12T12:36:59.195Z,35.97
2022-09-12T12:39:31.706Z,36.42
2022-09-12T12:42:01.669Z,34.47
2022-09-12T12:44:47.319Z,34.50
2022-09-12T12:47:23.252Z,33.35
2022-09-12T12:49:52.794Z,32.10
2022-09-12T12:52:19.934Z,33.97
2022-09-12T12:54:46.462Z,33.38
2022-09-12T12:57:12.898Z,33.73
2022-09-12T12:59:53.449Z,34.51
2022-09-12T13:02:33.814Z,35.06
2022-09-12T13:05:06.209Z,33.52
2022-09-12T13:07:40.228Z,33.65
2022-09-12T13:10:08.352Z,33.85
2022-09-12T13:12:45.923Z,33.12
2022-09-12T13:15:34.191Z,32.15
2022-09-12T13:18:12.270Z,32.22
2022-09-12T13:20:50.610Z,32.21
2022-09-12T13:23:29.070Z,31.68
2022-09-12T13:25:58.918Z,30.94
2022-09-12T13:28:30.109Z,31.70
2022-09-12T13:31:01.993Z,31.71
2022-09-12T13:33:37.242Z,31.07
2022-09-12T13:36:36.087Z,30.14
2022-09-12T13:39:24.524Z,29.39
2022-09-12T13:42:28.700Z,29.78
2022-09-12T13:44:58.267Z,29.93
2022-09-12T13:47:32.617Z,28.65
2022-09-12T13:50:01.111Z,28.64
2022-09-12T13:52:35.268Z,28.16
2022-09-12T13:55:07.990Z,27.90
2022-09-12T13:57:41.188Z,27.78
2022-09-12T14:00:20.291Z,27.80
2022-09-12T14:02:48.502Z,25.70
2022-09-12T14:05:25.200Z,25.76
2022-09-12T14:07:55.317Z,25.15
2022-09-12T14:10:30.270Z,24.88
2022-09-12T14:12:58.784Z,23.55
2022-09-12T14:15:29.071Z,22.78
2022-09-12T14:18:02.221Z,22.45
2022-09-12T14:20:34.840Z,23.17
2022-09-12T14:23:06.279Z,22.52
2022-09-12T14:25:37.354Z,23.23
2022-09-12T14:28:04.982Z,22.79
2022-09-12T14:30:36.774Z,22.88
2022-09-12T14:33:12.255Z,22.75
2022-09-12T14:35:43.591Z,22.59
2022-09-12T14:38:16.609Z,21.63
2022-09-12T14:40:48.642Z,21.27
2022-09-12T14:43:31.877Z,21.50
2022-09-12T14:46:02.181Z,20.49
2022-09-12T14:48:33.147Z,21.39
2022-09-12T14:51:01.342Z,21.33
2022-09-12T14:53:34.483Z,21.27
2022-09-12T14:56:12.840Z,20.93
2022-09-12T14:58:40.987Z,21.05
2022-09-12T15:01:07.933Z,20.50
2022-09-12T15:03:37.333Z,20.04
2022-09-12T15:06:07.992Z,20.76
2022-09-12T15:08:34.923Z,19.28
2022-09-12T15:11:01.585Z,19.96
2022-09-12T15:13:29.007Z,19.30
2022-09-12T15:15:57.799Z,19.00
2022-09-12T15:18:26.879Z,19.46
2022-09-12T15:20:57.832Z,19.27
2022-09-12T15:23:34.993Z,19.60
2022-09-12T15:26:02.443Z,19.29
2022-09-12T15:28:30.966Z,18.57
2022-09-12T15:31:00.243Z,18.53
2022-09-12T15:33:26.886Z,19.25
2022-09-12T15:35:53.729Z,19.45
2022-09-12T15:38:26.166Z,18.97
2022-09-12T15:40:53.646Z,18.47
2022-09-12T15:43:22.423Z,19.25
2022-09-12T15:45:51.527Z,18.42
2022-09-12T15:48:18.880Z,18.80
2022-09-12T15:50:45.684Z,18.23
2022-09-12T15:53:16.149Z,18.64
2022-09-12T15:55:43.725Z,17.97
2022-09-12T15:58:10.859Z,17.46
2022-09-12T16:00:37.662Z,18.12
2022-09-12T16:03:04.868Z,18.76
2022-09-12T16:05:31.714Z,18.84
2022-09-12T16:07:58.255Z,18.45
2022-09-12T16:10:29.009Z,17.70
2022-09-12T16:12:55.984Z,18.52
2022-09-12T16:15:24.743Z,19.11
2022-09-12T16:17:52.262Z,19.33
2022-09-12T16:20:19.774Z,19.28
2022-09-12T16:22:46.379Z,19.53
2022-09-12T16:25:13.147Z,20.90
2022-09-12T16:27:39.985Z,20.79
2022-09-12T16:30:08.311Z,21.27
2022-09-12T16:32:34.867Z,22.28
2022-09-12T16:35:02.098Z,24.01
2022-09-12T16:37:29.018Z,26.09
2022-09-12T16:39:55.707Z,27.53
2022-09-12T16:42:22.503Z,28.54
2022-09-12T16:44:49.008Z,29.16
2022-09-12T16:47:15.613Z,30.22
2022-09-12T16:49:42.302Z,31.19
2022-09-12T16:52:08.947Z,31.54
2022-09-12T16:54:35.584Z,32.72
2022-09-12T16:57:05.118Z,34.15
2022-09-12T16:59:31.665Z,34.71
2022-09-12T17:01:58.226Z,35.06
2022-09-12T17:04:24.822Z,36.21
2022-09-12T17:06:51.376Z,36.85
2022-09-12T17:09:18.736Z,37.08
2022-09-12T17:11:50.394Z,37.85
2022-09-12T17:14:17.277Z,37.99
2022-09-12T17:16:51.399Z,38.02
2022-09-12T17:19:26.639Z,38.60
2022-09-12T17:21:54.055Z,39.04
2022-09-12T17:24:21.560Z,39.89
2022-09-12T17:26:48.193Z,40.07
2022-09-12T17:29:15.524Z,40.63
2022-09-12T17:31:44.137Z,40.65
2022-09-12T17:34:14.416Z,40.86
2022-09-12T17:36:44.369Z,40.90
2022-09-12T17:39:13.671Z,41.19
2022-09-12T17:41:42.933Z,41.25
2022-09-12T17:44:13.466Z,41.90
2022-09-12T17:46:40.624Z,41.91
2022-09-12T17:49:11.501Z,42.90
2022-09-12T17:51:38.100Z,42.69
2022-09-12T17:54:11.875Z,42.91
2022-09-12T17:56:39.171Z,43.21
2022-09-12T17:59:08.117Z,42.74
2022-09-12T18:01:53.936Z,42.99
2022-09-12T18:04:20.839Z,43.56
2022-09-12T18:06:48.884Z,43.93
2022-09-12T18:09:25.164Z,44.52
2022-09-12T18:11:53.040Z,44.43
2022-09-12T18:14:20.340Z,44.37
2022-09-12T18:16:47.708Z,44.72
2022-09-12T18:19:14.960Z,45.17
2022-09-12T18:21:41.774Z,45.12
2022-09-12T18:24:10.003Z,46.13
2022-09-12T18:26:37.018Z,46.61
2022-09-12T18:29:04.210Z,46.36
2022-09-12T18:31:31.080Z,46.53
2022-09-12T18:33:59.881Z,46.90
2022-09-12T18:36:27.619Z,47.65
2022-09-12T18:38:54.387Z,47.52
2022-09-12T18:41:23.077Z,46.92
2022-09-12T18:43:54.538Z,47.56
2022-09-12T18:46:21.234Z,47.49
2022-09-12T18:48:47.870Z,47.17
2022-09-12T18:51:18.371Z,48.31
2022-09-12T18:53:52.093Z,48.22
2022-09-12T18:56:18.795Z,48.19
2022-09-12T18:58:49.394Z,48.14
2022-09-12T19:01:21.349Z,48.39
2022-09-12T19:03:48.558Z,48.75
2022-09-12T19:06:21.351Z,48.66
2022-09-12T19:08:49.051Z,48.86
2022-09-12T19:11:16.659Z,49.33
2022-09-12T19:13:45.679Z,49.43
2022-09-12T19:16:15.949Z,49.26
2022-09-12T19:18:43.585Z,49.90
2022-09-12T19:21:24.837Z,50.60
2022-09-12T19:23:53.215Z,50.66
2022-09-12T19:26:20.806Z,50.36
2022-09-12T19:28:48.011Z,50.87
2022-09-12T19:31:19.028Z,51.36
2022-09-12T19:33:46.367Z,51.45
2022-09-12T19:36:33.974Z,51.55
2022-09-12T19:39:01.605Z,51.49
2022-09-12T19:41:28.135Z,51.73
2022-09-12T19:43:57.697Z,51.84
2022-09-12T19:46:25.728Z,51.74
2022-09-12T19:48:52.863Z,52.44
2022-09-12T19:51:21.290Z,52.80
2022-09-12T19:53:50.178Z,53.00
2022-09-12T19:56:16.998Z,52.70
2022-09-12T19:58:46.233Z,53.07
2022-09-12T20:01:17.036Z,53.12
2022-09-12T20:03:44.771Z,53.78
2022-09-12T20:06:14.200Z,53.94
2022-09-12T20:08:42.285Z,54.39
2022-09-12T20:11:10.567Z,54.64
2022-09-12T20:13:37.404Z,54.54
2022-09-12T20:16:14.998Z,55.08
2022-09-12T20:18:44.472Z,54.87
2022-09-12T20:21:16.412Z,54.73
2022-09-12T20:23:43.578Z,55.07
2022-09-12T20:26:10.933Z,54.68
2022-09-12T20:28:38.837Z,54.96
2022-09-12T20:31:11.997Z,55.11
2022-09-12T20:33:39.138Z,55.69
2022-09-12T20:36:09.381Z,55.50
2022-09-12T20:38:36.597Z,56.08
2022-09-12T20:41:05.613Z,56.33
2022-09-12T20:43:32.271Z,56.61
2022-09-12T20:45:59.043Z,56.89
2022-09-12T20:48:25.991Z,57.06
2022-09-12T20:50:52.513Z,57.01
2022-09-12T20:53:19.163Z,56.77
2022-09-12T20:55:52.997Z,56.90
2022-09-12T20:58:21.590Z,56.65
2022-09-12T21:00:48.773Z,57.00
2022-09-12T21:03:16.268Z,57.65
2022-09-12T21:05:43.761Z,57.96
2022-09-12T21:08:10.909Z,57.85
2022-09-12T21:10:37.698Z,57.63
2022-09-12T21:13:04.233Z,57.98
2022-09-12T21:15:30.769Z,58.08
2022-09-12T21:17:57.284Z,58.44
2022-09-12T21:20:23.818Z,58.57
2022-09-12T21:22:50.351Z,58.42
2022-09-12T21:25:16.891Z,59.14
2022-09-12T21:27:43.435Z,59.37
2022-09-12T21:30:10.422Z,59.51
2022-09-12T21:32:37.406Z,59.63
2022-09-12T21:35:05.156Z,59.42
2022-09-12T21:37:32.460Z,59.58
2022-09-12T21:39:59.431Z,59.36
2022-09-12T21:42:26.147Z,59.99
2022-09-12T21:44:52.865Z,59.41
2022-09-12T21:47:19.421Z,59.52
2022-09-12T21:49:45.915Z,59.79
2022-09-12T21:52:12.797Z,60.68
2022-09-12T21:54:39.551Z,60.84
2022-09-12T21:57:06.107Z,60.37
2022-09-12T21:59:32.690Z,61.17
2022-09-12T22:01:59.706Z,60.72
2022-09-12T22:04:26.539Z,61.20
2022-09-12T22:06:53.247Z,60.64
2022-09-12T22:09:19.843Z,61.53
2022-09-12T22:11:46.953Z,61.47
2022-09-12T22:14:13.667Z,61.96
2022-09-12T22:16:40.527Z,62.33
2022-09-12T22:19:07.113Z,62.31
2022-09-12T22:21:33.656Z,62.52
2022-09-12T22:24:25.975Z,61.95
2022-09-12T22:26:52.431Z,61.63
2022-09-12T22:29:18.997Z,61.94
2022-09-12T22:31:45.636Z,62.44
2022-09-12T22:34:12.215Z,62.96
2022-09-12T22:36:39.315Z,62.32
2022-09-12T22:39:06.582Z,63.28
2022-09-12T22:41:33.161Z,62.77
2022-09-12T22:43:59.837Z,62.92
2022-09-12T22:46:26.795Z,62.55
2022-09-12T22:48:55.605Z,63.16
2022-09-12T22:51:22.199Z,63.20
2022-09-12T22:53:49.020Z,63.18
2022-09-12T22:56:15.715Z,64.19
2022-09-12T22:58:43.366Z,63.85
2022-09-12T23:01:10.510Z,63.63
2022-09-12T23:03:37.482Z,64.09
2022-09-12T23:06:05.603Z,64.43
2022-09-12T23:08:34.717Z,64.30
2022-09-12T23:11:13.152Z,64.66
2022-09-12T23:13:42.811Z,64.78
2022-09-12T23:16:15.267Z,64.99
2022-09-12T23:18:42.054Z,65.01
2022-09-12T23:21:10.775Z,64.94
2022-09-12T23:23:37.837Z,65.00
2022-09-12T23:26:19.462Z,65.21
2022-09-12T23:28:57.673Z,65.98
2022-09-12T23:31:29.810Z,65.05
2022-09-12T23:33:58.631Z,65.78
2022-09-12T23:36:26.050Z,65.65
2022-09-12T23:38:54.043Z,65.90
2022-09-12T23:41:22.148Z,66.33
2022-09-12T23:43:48.702Z,65.21
2022-09-12T23:46:16.620Z,66.03
2022-09-12T23:48:43.711Z,65.50
2022-09-12T23:51:11.159Z,65.92
2022-09-12T23:53:38.496Z,66.21
2022-09-12T23:56:06.054Z,65.87
2022-09-12T23:58:32.579Z,66.52
